createdAt,value
2024-05-09T00:00:56.045Z,15.63
2024-05-09T00:03:28.217Z,15.60
2024-05-09T00:06:01.077Z,15.53
2024-05-09T00:08:33.538Z,15.62
2024-05-09T00:11:06.475Z,15.33
2024-05-09T00:13:38.542Z,15.69
2024-05-09T00:16:11.559Z,15.56
2024-05-09T00:18:43.683Z,15.54
2024-05-09T00:21:16.476Z,15.43
2024-05-09T00:23:48.565Z,15.22
2024-05-09T00:26:21.580Z,15.38
2024-05-09T00:28:53.656Z,15.34
2024-05-09T00:31:26.977Z,15.65
2024-05-09T00:33:59.311Z,15.31
2024-05-09T00:36:31.978Z,15.58
2024-05-09T00:39:04.213Z,15.25
2024-05-09T00:41:37.088Z,15.35
2024-05-09T00:44:09.426Z,15.41
2024-05-09T00:46:41.929Z,15.22
2024-05-09T00:49:14.131Z,14.99
2024-05-09T00:51:46.859Z,15.42
2024-05-09T00:54:19.903Z,15.33
2024-05-09T00:56:53.336Z,15.32
2024-05-09T00:59:25.997Z,15.16
2024-05-09T01:01:59.814Z,15.19
2024-05-09T01:04:31.995Z,15.39
2024-05-09T01:07:04.776Z,15.26
2024-05-09T01:09:37.265Z,15.12
2024-05-09T01:12:09.553Z,14.87
2024-05-09T01:14:41.743Z,15.22
2024-05-09T01:17:15.065Z,14.72
2024-05-09T01:19:47.790Z,14.34
2024-05-09T01:22:20.610Z,13.63
2024-05-09T01:24:52.759Z,13.92
2024-05-09T01:27:25.235Z,13.88
2024-05-09T01:29:57.266Z,13.76
2024-05-09T01:32:29.863Z,14.12
2024-05-09T01:35:02.118Z,13.89
2024-05-09T01:37:34.625Z,13.96
2024-05-09T01:40:12.329Z,14.67
2024-05-09T01:42:51.244Z,13.19
2024-05-09T01:45:23.357Z,12.75
2024-05-09T01:47:56.019Z,12.48
2024-05-09T01:50:37.754Z,12.29
2024-05-09T01:53:15.355Z,12.20
2024-05-09T01:55:47.718Z,12.11
2024-05-09T01:58:21.166Z,12.03
2024-05-09T02:00:53.410Z,12.08
2024-05-09T02:03:26.007Z,12.08
2024-05-09T02:05:58.443Z,11.92
2024-05-09T02:08:30.791Z,11.81
2024-05-09T02:11:03.423Z,11.67
2024-05-09T02:13:35.561Z,11.65
2024-05-09T02:16:14.479Z,11.63
2024-05-09T02:18:47.159Z,11.57
2024-05-09T02:21:19.773Z,11.47
2024-05-09T02:23:51.892Z,11.42
2024-05-09T02:26:24.999Z,11.49
2024-05-09T02:28:57.416Z,11.50
2024-05-09T02:31:29.733Z,11.47
2024-05-09T02:34:02.077Z,11.63
2024-05-09T02:36:35.158Z,11.63
2024-05-09T02:39:07.445Z,11.64
2024-05-09T02:41:40.099Z,11.66
2024-05-09T02:44:12.269Z,11.73
2024-05-09T02:46:45.531Z,11.57
2024-05-09T02:49:17.760Z,11.50
2024-05-09T02:51:50.575Z,11.41
2024-05-09T02:54:22.657Z,11.37
2024-05-09T02:56:55.248Z,11.31
2024-05-09T02:59:27.738Z,11.28
2024-05-09T03:02:01.018Z,11.25
2024-05-09T03:04:33.295Z,11.10
2024-05-09T03:07:06.084Z,10.92
2024-05-09T03:09:38.229Z,10.91
2024-05-09T03:12:11.455Z,10.82
2024-05-09T03:14:43.587Z,10.74
2024-05-09T03:17:16.219Z,10.69
2024-05-09T03:19:48.865Z,10.72
2024-05-09T03:22:21.641Z,10.67
2024-05-09T03:24:53.692Z,10.67
2024-05-09T03:27:26.299Z,10.58
2024-05-09T03:29:58.989Z,10.63
2024-05-09T03:32:31.760Z,10.61
2024-05-09T03:35:04.176Z,10.52
2024-05-09T03:37:36.830Z,10.63
2024-05-09T03:40:14.647Z,10.67
2024-05-09T03:42:52.827Z,10.70
2024-05-09T03:45:25.037Z,10.68
2024-05-09T03:47:57.841Z,12.61
2024-05-09T03:50:35.108Z,14.26
2024-05-09T03:53:12.094Z,12.51
2024-05-09T03:55:44.380Z,12.73
2024-05-09T03:58:19.261Z,12.41
2024-05-09T04:00:51.384Z,13.64
2024-05-09T04:03:24.176Z,12.45
2024-05-09T04:05:57.798Z,12.76
2024-05-09T04:08:30.586Z,13.97
2024-05-09T04:11:02.988Z,14.73
2024-05-09T04:13:35.632Z,15.24
2024-05-09T04:16:10.574Z,15.25
2024-05-09T04:18:43.365Z,15.16
2024-05-09T04:21:15.550Z,14.06
2024-05-09T04:23:48.187Z,13.12
2024-05-09T04:26:20.361Z,14.40
2024-05-09T04:28:53.710Z,13.01
2024-05-09T04:31:25.992Z,12.68
2024-05-09T04:33:58.779Z,11.42
2024-05-09T04:36:30.950Z,10.80
2024-05-09T04:39:03.549Z,10.48
2024-05-09T04:41:35.864Z,10.46
2024-05-09T04:44:08.562Z,10.38
2024-05-09T04:46:40.690Z,10.32
2024-05-09T04:49:13.509Z,10.13
2024-05-09T04:51:45.634Z,10.18
2024-05-09T04:54:26.279Z,10.30
2024-05-09T04:57:06.356Z,10.29
2024-05-09T04:59:39.061Z,10.51
2024-05-09T05:02:11.254Z,10.79
2024-05-09T05:04:43.936Z,10.91
2024-05-09T05:07:16.513Z,11.16
2024-05-09T05:09:49.179Z,11.31
2024-05-09T05:12:39.613Z,11.50
2024-05-09T05:15:12.399Z,11.53
2024-05-09T05:17:44.636Z,11.50
2024-05-09T05:20:27.161Z,11.42
2024-05-09T05:23:15.600Z,11.53
2024-05-09T05:25:50.673Z,11.86
2024-05-09T05:28:23.473Z,12.22
2024-05-09T05:30:57.268Z,12.42
2024-05-09T05:33:29.740Z,12.61
2024-05-09T05:36:02.366Z,12.53
2024-05-09T05:38:34.576Z,12.30
2024-05-09T05:41:07.238Z,12.15
2024-05-09T05:43:39.671Z,12.08
2024-05-09T05:46:12.694Z,12.19
2024-05-09T05:48:45.157Z,12.17
2024-05-09T05:51:17.981Z,12.02
2024-05-09T05:53:50.154Z,11.88
2024-05-09T05:56:23.153Z,11.81
2024-05-09T05:58:55.711Z,11.73
2024-05-09T06:01:28.408Z,11.83
2024-05-09T06:04:00.651Z,11.97
2024-05-09T06:06:33.326Z,12.02
2024-05-09T06:09:05.782Z,12.32
2024-05-09T06:11:41.489Z,12.62
2024-05-09T06:14:15.230Z,12.87
2024-05-09T06:16:47.972Z,13.21
2024-05-09T06:19:20.194Z,13.48
2024-05-09T06:21:52.972Z,13.79
2024-05-09T06:24:26.321Z,14.16
2024-05-09T06:26:59.580Z,14.35
2024-05-09T06:29:32.875Z,14.73
2024-05-09T06:32:06.604Z,14.55
2024-05-09T06:34:38.945Z,14.78
2024-05-09T06:37:11.655Z,14.77
2024-05-09T06:39:46.175Z,14.91
2024-05-09T06:42:18.796Z,14.97
2024-05-09T06:44:50.928Z,15.09
2024-05-09T06:47:24.122Z,15.47
2024-05-09T06:49:56.651Z,15.79
2024-05-09T06:52:29.356Z,17.21
2024-05-09T06:55:01.697Z,18.20
2024-05-09T06:57:34.078Z,19.38
2024-05-09T07:00:10.341Z,19.87
2024-05-09T07:02:47.984Z,17.84
2024-05-09T07:05:20.707Z,17.17
2024-05-09T07:07:53.468Z,16.47
2024-05-09T07:10:32.415Z,16.03
2024-05-09T07:13:12.207Z,15.76
2024-05-09T07:15:44.424Z,15.40
2024-05-09T07:18:18.755Z,15.55
2024-05-09T07:20:52.095Z,15.97
2024-05-09T07:23:24.864Z,16.48
2024-05-09T07:25:58.649Z,16.21
2024-05-09T07:28:31.390Z,16.75
2024-05-09T07:31:03.697Z,17.65
2024-05-09T07:33:36.837Z,17.03
2024-05-09T07:36:09.036Z,16.53
2024-05-09T07:38:42.150Z,16.49
2024-05-09T07:41:14.508Z,16.60
2024-05-09T07:43:47.271Z,17.06
2024-05-09T07:47:14.520Z,17.62
2024-05-09T07:50:53.512Z,17.28
2024-05-09T07:54:40.735Z,17.57
2024-05-09T07:57:13.125Z,17.57
2024-05-09T07:59:45.804Z,17.79
2024-05-09T08:02:18.040Z,17.89
2024-05-09T08:04:51.353Z,17.38
2024-05-09T08:07:23.548Z,17.51
2024-05-09T08:09:56.574Z,17.71
2024-05-09T08:12:28.801Z,18.47
2024-05-09T08:15:01.725Z,22.62
2024-05-09T08:17:34.013Z,21.67
2024-05-09T08:20:07.660Z,20.32
2024-05-09T08:22:41.289Z,19.30
2024-05-09T08:25:14.626Z,19.10
2024-05-09T08:27:47.794Z,18.37
2024-05-09T08:30:29.810Z,18.77
2024-05-09T08:33:09.289Z,18.68
2024-05-09T08:35:43.798Z,19.44
2024-05-09T08:38:16.670Z,19.05
2024-05-09T08:40:49.912Z,19.07
2024-05-09T08:43:25.235Z,20.05
2024-05-09T08:46:00.646Z,21.01
2024-05-09T08:48:36.663Z,20.20
2024-05-09T08:51:09.917Z,23.50
2024-05-09T08:53:43.846Z,25.90
2024-05-09T08:56:18.733Z,25.36
2024-05-09T08:59:01.369Z,27.11
2024-05-09T09:01:38.021Z,26.05
2024-05-09T09:04:22.785Z,27.62
2024-05-09T09:06:58.318Z,26.24
2024-05-09T09:09:34.254Z,26.15
2024-05-09T09:12:08.575Z,24.94
2024-05-09T09:14:42.630Z,23.38
2024-05-09T09:17:16.703Z,23.59
2024-05-09T09:19:48.818Z,22.53
2024-05-09T09:22:22.392Z,22.14
2024-05-09T09:24:55.024Z,21.45
2024-05-09T09:27:27.755Z,20.59
2024-05-09T09:30:00.647Z,19.87
2024-05-09T09:32:33.321Z,19.87
2024-05-09T09:35:06.216Z,19.64
2024-05-09T09:37:39.138Z,19.50
2024-05-09T09:40:22.267Z,19.33
2024-05-09T09:42:58.574Z,19.37
2024-05-09T09:45:33.820Z,19.09
2024-05-09T09:48:08.333Z,19.16
2024-05-09T09:50:41.549Z,19.00
2024-05-09T09:53:16.427Z,19.05
2024-05-09T09:55:49.435Z,18.95
2024-05-09T09:58:23.233Z,18.94
2024-05-09T10:00:55.638Z,18.92
2024-05-09T10:03:28.710Z,18.96
2024-05-09T10:06:01.396Z,19.03
2024-05-09T10:11:37.017Z,19.60
2024-05-09T10:14:12.278Z,19.71
2024-05-09T10:16:45.806Z,19.54
2024-05-09T10:19:28.132Z,19.65
2024-05-09T10:22:05.434Z,19.57
2024-05-09T10:24:54.820Z,19.60
2024-05-09T10:27:31.987Z,20.24
2024-05-09T10:30:11.540Z,20.70
2024-05-09T10:32:48.668Z,20.75
2024-05-09T10:35:22.804Z,20.48
2024-05-09T10:37:56.973Z,20.41
2024-05-09T10:40:31.559Z,20.13
2024-05-09T10:43:06.599Z,20.02
2024-05-09T10:45:39.468Z,20.07
2024-05-09T10:48:13.582Z,20.04
2024-05-09T10:50:47.035Z,20.66
2024-05-09T10:53:21.026Z,22.34
2024-05-09T10:56:00.295Z,22.78
2024-05-09T10:58:33.808Z,21.84
2024-05-09T11:01:07.402Z,21.25
2024-05-09T11:03:41.558Z,20.83
2024-05-09T11:06:16.256Z,20.69
2024-05-09T11:08:50.640Z,21.01
2024-05-09T11:11:22.828Z,21.22
2024-05-09T11:13:56.405Z,21.60
2024-05-09T11:16:28.873Z,21.95
2024-05-09T11:19:02.592Z,22.75
2024-05-09T11:21:34.824Z,22.87
2024-05-09T11:24:11.210Z,22.08
2024-05-09T11:26:43.729Z,21.68
2024-05-09T11:29:19.488Z,21.40
2024-05-09T11:31:52.728Z,21.01
2024-05-09T11:34:26.049Z,21.19
2024-05-09T11:36:58.453Z,21.24
2024-05-09T11:39:32.097Z,21.10
2024-05-09T11:42:04.994Z,21.33
2024-05-09T11:44:39.124Z,21.77
2024-05-09T11:47:11.742Z,21.81
2024-05-09T11:49:45.316Z,21.47
2024-05-09T11:52:17.575Z,21.53
2024-05-09T11:54:51.155Z,22.26
2024-05-09T11:57:24.464Z,22.22
2024-05-09T11:59:58.339Z,22.10
2024-05-09T12:02:30.455Z,21.64
2024-05-09T12:05:05.112Z,21.72
2024-05-09T12:07:37.252Z,21.46
2024-05-09T12:10:16.513Z,21.19
2024-05-09T12:12:53.426Z,20.93
2024-05-09T12:15:26.912Z,20.57
2024-05-09T12:18:02.535Z,20.72
2024-05-09T12:20:39.607Z,21.17
2024-05-09T12:23:13.171Z,21.61
2024-05-09T12:25:46.018Z,21.88
2024-05-09T12:28:18.419Z,22.42
2024-05-09T12:30:52.628Z,22.24
2024-05-09T12:33:24.911Z,22.57
2024-05-09T12:35:58.943Z,22.28
2024-05-09T12:38:31.488Z,22.05
2024-05-09T12:41:05.364Z,21.56
2024-05-09T12:43:38.075Z,21.22
2024-05-09T12:46:12.209Z,21.12
2024-05-09T12:48:44.539Z,21.25
2024-05-09T12:51:18.523Z,21.27
2024-05-09T12:53:50.544Z,21.53
2024-05-09T12:56:24.244Z,21.63
2024-05-09T12:58:56.780Z,22.10
2024-05-09T13:01:30.549Z,22.72
2024-05-09T13:04:03.369Z,22.50
2024-05-09T13:06:37.612Z,22.79
2024-05-09T13:09:11.878Z,22.61
2024-05-09T13:11:45.778Z,22.59
2024-05-09T13:14:17.867Z,22.36
2024-05-09T13:16:51.404Z,22.18
2024-05-09T13:19:23.758Z,22.45
2024-05-09T13:21:57.796Z,22.78
2024-05-09T13:24:30.605Z,22.85
2024-05-09T13:27:03.948Z,23.10
2024-05-09T13:29:36.184Z,23.91
2024-05-09T13:32:09.672Z,23.90
2024-05-09T13:34:42.263Z,23.29
2024-05-09T13:37:16.160Z,22.96
2024-05-09T13:39:48.743Z,22.74
2024-05-09T13:42:22.287Z,22.52
2024-05-09T13:44:55.082Z,22.25
2024-05-09T13:47:29.073Z,22.11
2024-05-09T13:50:02.008Z,21.87
2024-05-09T13:52:36.706Z,21.67
2024-05-09T13:55:08.951Z,21.41
2024-05-09T13:57:42.636Z,21.15
2024-05-09T14:00:26.992Z,21.03
2024-05-09T14:03:09.086Z,21.04
2024-05-09T14:05:41.633Z,21.09
2024-05-09T14:08:16.154Z,21.27
2024-05-09T14:10:49.320Z,22.03
2024-05-09T14:13:23.170Z,22.70
2024-05-09T14:15:56.188Z,23.03
2024-05-09T14:18:30.303Z,23.36
2024-05-09T14:21:03.730Z,22.39
2024-05-09T14:23:36.538Z,22.15
2024-05-09T14:26:09.113Z,21.86
2024-05-09T14:28:43.035Z,21.61
2024-05-09T14:31:15.172Z,21.59
2024-05-09T14:33:49.069Z,21.69
2024-05-09T14:36:21.251Z,21.41
2024-05-09T14:38:54.979Z,21.35
2024-05-09T14:41:27.265Z,21.37
2024-05-09T14:44:01.764Z,21.27
2024-05-09T14:46:33.930Z,21.24
2024-05-09T14:49:09.901Z,21.24
2024-05-09T14:51:48.371Z,21.30
2024-05-09T14:54:22.487Z,21.40
2024-05-09T14:56:55.217Z,21.47
2024-05-09T14:59:29.080Z,21.74
2024-05-09T15:02:01.424Z,22.09
2024-05-09T15:04:35.093Z,22.69
2024-05-09T15:07:08.328Z,22.52
2024-05-09T15:09:44.396Z,22.46
2024-05-09T15:12:16.576Z,22.24
2024-05-09T15:14:50.829Z,22.23
2024-05-09T15:17:23.234Z,22.26
2024-05-09T15:19:56.900Z,22.08
2024-05-09T15:22:29.543Z,21.89
2024-05-09T15:25:03.235Z,21.59
2024-05-09T15:27:37.685Z,21.73
2024-05-09T15:30:13.241Z,21.72
2024-05-09T15:32:47.800Z,22.31
2024-05-09T15:35:21.571Z,22.69
2024-05-09T15:37:54.134Z,22.72
2024-05-09T15:40:36.185Z,23.24
2024-05-09T15:43:12.873Z,23.13
2024-05-09T15:45:46.483Z,22.55
2024-05-09T15:48:19.216Z,22.40
2024-05-09T15:50:53.262Z,21.78
2024-05-09T15:53:25.413Z,21.69
2024-05-09T15:55:59.053Z,21.68
2024-05-09T15:58:31.873Z,21.70
2024-05-09T16:01:05.979Z,21.88
2024-05-09T16:03:38.290Z,21.99
2024-05-09T16:06:11.952Z,22.23
2024-05-09T16:08:44.061Z,22.12
2024-05-09T16:11:20.205Z,21.97
2024-05-09T16:13:52.747Z,21.92
2024-05-09T16:16:26.282Z,21.99
2024-05-09T16:18:58.991Z,22.35
2024-05-09T16:21:32.565Z,22.63
2024-05-09T16:24:05.205Z,22.93
2024-05-09T16:26:39.487Z,23.05
2024-05-09T16:29:11.675Z,23.04
2024-05-09T16:31:45.612Z,22.46
2024-05-09T16:34:18.227Z,21.83
2024-05-09T16:36:52.807Z,21.55
2024-05-09T16:39:25.392Z,21.90
2024-05-09T16:41:59.171Z,22.10
2024-05-09T16:44:33.045Z,21.96
2024-05-09T16:47:08.756Z,21.90
2024-05-09T16:49:41.073Z,21.82
2024-05-09T16:52:16.048Z,21.71
2024-05-09T16:54:48.212Z,21.78
2024-05-09T16:57:22.019Z,21.87
2024-05-09T16:59:54.095Z,21.72
2024-05-09T17:02:27.876Z,21.42
2024-05-09T17:05:00.209Z,21.24
2024-05-09T17:07:34.101Z,21.12
2024-05-09T17:10:10.331Z,21.15
2024-05-09T17:12:48.179Z,21.25
2024-05-09T17:15:20.828Z,21.51
2024-05-09T17:17:54.730Z,21.47
2024-05-09T17:20:34.647Z,21.33
2024-05-09T17:23:14.431Z,21.32
2024-05-09T17:25:47.277Z,21.09
2024-05-09T17:28:21.568Z,20.83
2024-05-09T17:30:54.251Z,20.69
2024-05-09T17:33:29.370Z,20.56
2024-05-09T17:36:01.612Z,20.55
2024-05-09T17:38:35.752Z,20.69
2024-05-09T17:41:08.342Z,20.82
2024-05-09T17:43:42.355Z,20.97
2024-05-09T17:46:14.560Z,20.82
2024-05-09T17:48:49.008Z,20.79
2024-05-09T17:51:21.235Z,20.44
2024-05-09T17:53:54.852Z,20.38
2024-05-09T17:56:27.226Z,20.15
2024-05-09T17:59:00.766Z,20.01
2024-05-09T18:01:32.972Z,19.98
2024-05-09T18:04:06.582Z,19.96
2024-05-09T18:06:38.869Z,19.86
2024-05-09T18:09:12.597Z,19.71
2024-05-09T18:11:44.762Z,19.66
2024-05-09T18:14:18.637Z,19.48
2024-05-09T18:16:51.269Z,19.43
2024-05-09T18:19:25.015Z,19.29
2024-05-09T18:21:57.947Z,19.21
2024-05-09T18:24:30.882Z,19.11
2024-05-09T18:27:03.522Z,19.13
2024-05-09T18:29:37.488Z,18.82
2024-05-09T18:32:09.635Z,18.62
2024-05-09T18:34:43.144Z,18.41
2024-05-09T18:37:15.736Z,18.26
2024-05-09T18:39:49.362Z,18.07
2024-05-09T18:42:22.042Z,17.95
2024-05-09T18:44:55.802Z,17.81
2024-05-09T18:47:28.501Z,17.66
2024-05-09T18:50:05.916Z,17.59
2024-05-09T18:52:41.501Z,17.49
2024-05-09T18:55:15.437Z,17.24
2024-05-09T18:57:48.084Z,17.20
2024-05-09T19:00:31.598Z,17.13
2024-05-09T19:03:12.431Z,17.06
2024-05-09T19:05:47.574Z,17.00
2024-05-09T19:08:20.492Z,16.89
2024-05-09T19:10:55.214Z,16.72
2024-05-09T19:13:28.234Z,16.65
2024-05-09T19:16:02.352Z,16.55
2024-05-09T19:18:36.792Z,16.51
2024-05-09T19:21:10.561Z,16.32
2024-05-09T19:23:50.421Z,16.36
2024-05-09T19:26:26.229Z,16.24
2024-05-09T19:28:58.842Z,16.01
2024-05-09T19:31:34.103Z,15.99
2024-05-09T19:34:06.865Z,15.99
2024-05-09T19:36:40.484Z,15.75
2024-05-09T19:39:13.221Z,15.72
2024-05-09T19:41:46.693Z,15.63
2024-05-09T19:44:18.969Z,15.45
2024-05-09T19:46:52.945Z,15.47
2024-05-09T19:49:25.618Z,15.45
2024-05-09T19:51:59.642Z,15.33
2024-05-09T19:54:31.889Z,15.25
2024-05-09T19:57:05.882Z,15.16
2024-05-09T19:59:38.141Z,15.01
2024-05-09T20:02:12.134Z,15.11
2024-05-09T20:04:46.015Z,15.03
2024-05-09T20:07:19.602Z,14.82
2024-05-09T20:09:53.645Z,14.90
2024-05-09T20:12:27.846Z,14.83
2024-05-09T20:15:00.207Z,14.65
2024-05-09T20:17:34.868Z,14.55
2024-05-09T20:20:13.721Z,14.44
2024-05-09T20:22:53.597Z,14.36
2024-05-09T20:25:26.076Z,14.27
2024-05-09T20:28:00.089Z,14.26
2024-05-09T20:30:36.184Z,14.14
2024-05-09T20:33:10.561Z,14.05
2024-05-09T20:35:42.869Z,13.96
2024-05-09T20:38:16.544Z,13.81
2024-05-09T20:40:49.008Z,13.82
2024-05-09T20:43:23.058Z,13.95
2024-05-09T20:45:55.216Z,13.94
2024-05-09T20:48:28.773Z,13.87
2024-05-09T20:51:01.342Z,13.82
2024-05-09T20:53:35.133Z,13.75
2024-05-09T20:56:07.815Z,13.72
2024-05-09T20:58:41.718Z,13.68
2024-05-09T21:01:13.824Z,13.56
2024-05-09T21:03:48.640Z,13.53
2024-05-09T21:06:20.774Z,13.42
2024-05-09T21:08:54.210Z,13.32
2024-05-09T21:11:26.911Z,13.36
2024-05-09T21:14:00.760Z,13.36
2024-05-09T21:16:34.164Z,13.34
2024-05-09T21:19:07.748Z,13.22
2024-05-09T21:21:41.742Z,13.19
2024-05-09T21:24:14.892Z,13.24
2024-05-09T21:26:46.971Z,13.29
2024-05-09T21:29:20.656Z,13.17
2024-05-09T21:31:53.171Z,13.17
2024-05-09T21:34:27.133Z,13.10
2024-05-09T21:36:59.766Z,13.06
2024-05-09T21:39:33.836Z,12.98
2024-05-09T21:42:06.569Z,12.91
2024-05-09T21:44:40.871Z,12.88
2024-05-09T21:47:12.983Z,12.71
2024-05-09T21:49:46.437Z,12.75
2024-05-09T21:52:19.393Z,12.74
2024-05-09T21:54:52.890Z,12.65
2024-05-09T21:57:25.398Z,12.66
2024-05-09T21:59:59.465Z,12.59
2024-05-09T22:02:31.951Z,12.57
2024-05-09T22:05:06.056Z,12.43
2024-05-09T22:07:38.795Z,12.49
2024-05-09T22:10:20.030Z,12.33
2024-05-09T22:12:59.401Z,12.34
2024-05-09T22:15:37.054Z,12.43
2024-05-09T22:18:11.416Z,12.45
2024-05-09T22:20:46.584Z,12.37
2024-05-09T22:23:18.948Z,12.32
2024-05-09T22:25:52.369Z,12.26
2024-05-09T22:28:24.510Z,12.27
2024-05-09T22:30:58.081Z,12.17
2024-05-09T22:33:30.216Z,12.09
2024-05-09T22:36:04.254Z,12.09
2024-05-09T22:38:36.814Z,12.15
2024-05-09T22:41:10.330Z,12.09
2024-05-09T22:43:42.392Z,12.01
2024-05-09T22:46:16.059Z,11.92
2024-05-09T22:48:48.200Z,11.89
2024-05-09T22:51:21.805Z,11.85
2024-05-09T22:53:53.867Z,11.91
2024-05-09T22:56:28.949Z,11.95
2024-05-09T22:59:01.718Z,11.92
2024-05-09T23:01:35.243Z,12.00
2024-05-09T23:04:07.489Z,11.97
2024-05-09T23:06:44.173Z,11.89
2024-05-09T23:09:16.259Z,12.00
2024-05-09T23:11:49.167Z,11.96
2024-05-09T23:14:22.037Z,11.93
2024-05-09T23:16:54.820Z,11.90
2024-05-09T23:19:26.952Z,11.85
2024-05-09T23:22:00.868Z,11.95
2024-05-09T23:24:33.198Z,11.86
2024-05-09T23:27:07.016Z,11.88
2024-05-09T23:29:39.261Z,11.87
2024-05-09T23:32:12.829Z,11.87
2024-05-09T23:34:45.082Z,11.87
2024-05-09T23:37:18.772Z,11.84
2024-05-09T23:39:50.992Z,11.78
2024-05-09T23:42:24.466Z,11.80
2024-05-09T23:44:58.431Z,11.76
2024-05-09T23:47:32.240Z,11.70
2024-05-09T23:50:11.149Z,11.64
2024-05-09T23:52:49.756Z,11.59
2024-05-09T23:55:21.992Z,11.57
2024-05-09T23:57:55.578Z,11.57
